Current Conditions

Updated: 23-Sep-2017 4:27 PM  
Summary / Temperature Wind Rain






Feels like: 76°F

1-hour difference
1.2°F 1.2°F colder than last hour.

24-hour difference
3.5°F3.5°F warmer than yesterday at this time.

  Today Yesterday
High: 77.9°F
3:11 PM
74.9°F
3:04 PM
Low: 47.9°F
6:47 AM
46.8°F
6:49 AM
Wind from WNW WNW
0.2
Gust:  0.0 mph
0 Beaufort - Calm

Today: 8.1 - 2:10 AM
Month: 13.8 mph - Sep 3
Rain Today: 0.00 in
Current Rate (/hr): 0.000 in
Max Rate (/hr):
Rain Yesterday: 0.00 in
Storm Rain: 0.00 in
This Month: 0.14 in
Season Total: 0.14 in
Last Rain Event: 1 day ago
Humidity / Barometer Sun / Moon
Humidity: 30  
Dew Point: 42.3°F Decreased 1.2°F in the last hour.
Barometer: 29.836 inHg  
Baro Trend: Steady
Sunrise: 6:45 AM
Sunset: 6:52 PM
Moonrise: 10:02 AM
Moonset: 8:36 PM
Sky Conditions UV Index
Summary: Clear
Visibility: 10 miles
Clouds: None
KVIS - 3:56 PM PDT
Current: 4.0  Moderate 
Saturday: 5.8  Moderate 
Sunday: 6.1  High 
Air Quality Fire Danger
 Good 
Ozone 49 ppb
PM 2.5 7 μg/m3
4:20 PM PDT
Current: 62  Moderate 

Local Alerts Local Forecast
Local NWS Alerts
Tonight

Clear

Low 52
Sun

Sunny

High 81
Sun night

Clear

Low 54
Mon

Sunny

High 85
Mon night

Clear

Low 56
Tue

Sunny

High 87
Tue night

Clear

Low 58

Local Radar Local Satellite Neighborhood Cam Sky Cam
Local Radar Local Satellite Neighborhood Cam Sky Cam


Nearby Personal Stations

Weather Underground PWS KCAEXETE7     Weather Underground PWS KCAEXETE6     Weather Underground PWS KCAEXETE11

Nearby Airport Stations

KVIS - Visalia, California, USA
Distance from station: W 14mi, 23km
Updated: Sat, 23-Sep-2017 3:56pm PDT
Clear
Clear
 Wind from NNW
Wind: NNW 5 mph , 7 km/h
Temperature: 77°F , 25°C
Dew Point: 41°F , 5°C
Humidity: 28%
Barometer: 29.87 inHg , 1011.5 hPa
Clouds: Clear
Visibility: 10 miles , 16 km
2017/09/23 22:56 KVIS 232256Z AUTO 33004KT 10SM CLR 25/05 A2987 RMK AO2 SLP120 T02500050
KPTV - Porterville, California, USA
Distance from station: SSE 19mi, 31km
Updated: Sat, 23-Sep-2017 3:56pm PDT

 Wind from varies
Wind: varies 3 mph , 6 km/h
Temperature: 75°F , 24°C
Dew Point: 36°F , 2°C
Humidity: 24%
Barometer: 29.88 inHg , 1011.9 hPa
Visibility: 10 miles , 16 km
2017/09/23 22:56 KPTV 232256Z AUTO VRB03KT 10SM 24/02 A2988 RMK AO2 SLP128 T02440022 $

Metar display script from Saratoga-Weather.org



Visitor Map